Time;durP1;ratioP1;P1;durP2;ratioP2;P2;SDS_P1;SDS_P2;PMS_P1;PMS_P2;Temp;Humidity;BMP_temperature;BMP_pressure;BME280_temperature;BME280_humidity;BME280_pressure;Samples;Min_cycle;Max_cycle;Signal;HPM_P1;HPM_P2
2022/08/11 00:01:27;;;;;;;0.10;0.10;;;19.70;99.50;;;19.63;70.56;100798.31;5071381;28;20193;-59
2022/08/11 00:04:19;;;;;;;0.10;0.10;;;19.60;99.40;;;19.47;70.87;100808.44;5077503;28;20193;-59
2022/08/11 00:07:09;;;;;;;0.10;0.10;;;19.60;98.70;;;19.62;68.58;100809.97;5072975;28;20210;-59
2022/08/11 00:09:59;;;;;;;0.10;0.10;;;19.60;98.70;;;19.62;68.63;100812.66;5088810;28;20215;-59
2022/08/11 00:13:00;;;;;;;0.10;0.10;;;19.50;98.10;;;19.72;68.01;100815.09;5052365;28;20204;-58
2022/08/11 00:15:49;;;;;;;0.10;0.10;;;19.70;98.00;;;19.90;67.23;100819.16;5083111;28;20221;-58
2022/08/11 00:18:45;;;;;;;0.10;0.10;;;19.60;97.80;;;19.82;67.38;100813.06;5074118;28;20578;-59
2022/08/11 00:21:41;;;;;;;0.10;0.10;;;19.50;99.20;;;19.65;68.50;100805.41;5089419;28;21106;-59
2022/08/11 00:24:50;;;;;;;0.10;0.10;;;19.70;98.30;;;19.74;67.55;100790.91;5080657;28;20216;-59
2022/08/11 00:27:42;;;;;;;0.20;0.20;;;19.50;98.50;;;19.66;67.15;100792.88;5098794;28;20204;-59
2022/08/11 00:30:38;;;;;;;0.10;0.10;;;19.40;99.90;;;19.22;71.63;100802.69;5078316;28;20224;-59
2022/08/11 00:33:37;;;;;;;0.03;0.03;;;19.60;99.90;;;19.39;69.42;100800.53;5071159;28;20193;-59
2022/08/11 00:37:00;;;;;;;0.10;0.10;;;19.30;99.30;;;19.60;68.58;100822.53;5094382;28;20247;-59
2022/08/11 00:39:52;;;;;;;0.10;0.10;;;19.40;99.40;;;19.68;67.94;100834.84;5082440;28;20208;-59
2022/08/11 00:43:22;;;;;;;0.00;0.00;;;19.40;98.60;;;19.76;67.07;100822.16;5076128;28;20209;-57
2022/08/11 00:46:37;;;;;;;0.10;0.10;;;19.40;98.80;;;19.65;67.47;100815.25;5073718;28;20221;-58
2022/08/11 00:49:47;;;;;;;0.10;0.10;;;19.30;98.80;;;19.70;66.91;100813.34;5073702;28;20207;-59
2022/08/11 00:53:16;;;;;;;0.10;0.10;;;19.40;99.00;;;19.73;67.22;100827.59;5089165;28;20205;-59
2022/08/11 00:56:24;;;;;;;0.10;0.10;;;19.30;98.20;;;19.65;66.37;100805.41;5087702;28;20217;-58
2022/08/11 01:00:05;;;;;;;0.00;0.00;;;19.20;98.80;;;19.57;66.51;100793.97;5058763;28;20684;-58
2022/08/11 01:03:16;;;;;;;0.10;0.10;;;19.20;98.70;;;19.65;66.61;100791.09;5069157;28;20563;-58
2022/08/11 01:06:26;;;;;;;0.20;0.20;;;19.40;99.00;;;19.53;67.42;100786.03;5059996;28;20612;-58
2022/08/11 01:09:51;;;;;;;0.10;0.10;;;19.30;99.20;;;19.56;67.69;100799.38;5068323;28;20193;-59
2022/08/11 01:12:55;;;;;;;0.10;0.10;;;19.20;98.90;;;19.59;66.91;100789.44;5102625;28;20233;-59
2022/08/11 01:16:26;;;;;;;0.10;0.10;;;19.20;98.80;;;19.66;66.73;100793.75;5039872;28;20229;-58
2022/08/11 01:19:52;;;;;;;0.10;0.10;;;19.20;99.50;;;19.49;68.02;100793.19;5078603;28;20212;-59
2022/08/11 01:23:28;;;;;;;0.00;0.00;;;19.20;99.70;;;19.53;67.51;100796.75;5066297;28;20220;-59
2022/08/11 01:26:28;;;;;;;0.30;0.30;;;18.90;99.40;;;19.51;67.61;100794.06;5065163;28;20226;-59
2022/08/11 01:29:59;;;;;;;0.10;0.10;;;19.20;99.80;;;19.47;67.65;100795.00;5063758;28;20213;-58
2022/08/11 01:33:33;;;;;;;0.10;0.10;;;19.20;99.80;;;19.54;67.40;100802.09;5065573;28;20229;-58
2022/08/11 01:36:59;;;;;;;0.10;0.10;;;19.30;99.80;;;19.49;67.30;100798.56;5082584;28;20231;-58
2022/08/11 01:39:56;;;;;;;0.10;0.10;;;19.10;99.90;;;19.45;68.07;100797.72;5084575;28;20197;-58
2022/08/11 01:46:34;;;;;;;0.10;0.10;;;19.10;99.90;;;19.56;67.52;100810.09;5063891;28;20244;-58
2022/08/11 01:49:55;;;;;;;0.10;0.10;;;19.10;99.90;;;19.53;67.17;100805.69;5082855;28;20201;-58
2022/08/11 01:53:17;;;;;;;0.10;0.10;;;19.10;99.90;;;19.59;67.28;100813.59;5053903;28;20225;-58
2022/08/11 01:56:27;;;;;;;0.10;0.10;;;19.10;99.90;;;19.46;67.29;100795.94;5070326;28;20229;-59
2022/08/11 01:59:27;;;;;;;0.10;0.10;;;19.00;99.90;;;19.08;68.89;100796.72;5060132;28;20201;-59
2022/08/11 02:02:46;;;;;;;0.10;0.10;;;18.90;99.90;;;19.09;69.16;100801.19;5058559;28;20201;-59
2022/08/11 02:06:00;;;;;;;0.10;0.10;;;18.90;99.90;;;19.13;68.81;100798.41;5058429;28;20216;-58
2022/08/11 02:09:12;;;;;;;0.10;0.10;;;18.90;99.90;;;19.34;68.38;100833.75;5046568;28;20696;-59
2022/08/11 02:12:40;;;;;;;0.10;0.10;;;19.00;99.90;;;19.36;67.60;100831.91;5074020;28;20228;-59
2022/08/11 02:15:50;;;;;;;0.10;0.10;;;18.90;99.90;;;19.19;68.57;100829.56;5059116;28;20217;-58
2022/08/11 02:25:52;;;;;;;0.00;0.00;;;14.70;99.90;;;18.59;71.74;100823.53;5067753;28;20221;-58
2022/08/11 02:29:00;;;;;;;0.10;0.10;;;18.50;99.90;;;18.70;70.95;100853.72;5057784;28;20201;-58
2022/08/11 02:35:42;;;;;;;0.10;0.10;;;18.50;99.90;;;18.72;70.96;100870.66;5077340;28;20244;-57
2022/08/11 02:38:53;;;;;;;0.10;0.10;;;18.60;99.90;;;18.93;69.77;100889.03;5076655;28;20216;-58
2022/08/11 02:45:33;;;;;;;0.10;0.10;;;18.70;99.90;;;18.96;69.33;100886.31;5057644;28;20248;-59
2022/08/11 02:52:08;;;;;;;0.10;0.10;;;18.60;99.90;;;18.96;69.26;100877.38;5059231;28;20653;-59
2022/08/11 02:55:22;;;;;;;0.00;0.00;;;18.50;99.90;;;18.90;69.72;100872.13;5068145;28;20222;-59
2022/08/11 02:59:49;;;;;;;0.10;0.10;;;18.50;99.90;;;18.86;69.61;100866.84;5058961;28;20554;-58
2022/08/11 03:02:26;;;;;;;0.10;0.10;;;18.50;99.90;;;18.83;69.81;100869.56;5067036;28;20215;-58
2022/08/11 03:05:36;;;;;;;0.10;0.10;;;18.50;99.90;;;18.76;70.26;100869.69;5062263;28;20229;-58
2022/08/11 03:08:51;;;;;;;0.13;0.13;;;18.50;99.90;;;18.73;69.97;100867.97;5056042;28;20205;-58
2022/08/11 03:19:00;;;;;;;0.10;0.10;;;18.40;99.90;;;18.74;70.01;100877.78;5071404;28;20201;-58
2022/08/11 03:22:18;;;;;;;0.10;0.10;;;18.30;99.90;;;18.68;70.05;100863.59;5054444;28;20204;-57
2022/08/11 03:25:30;;;;;;;0.10;0.10;;;18.30;99.90;;;18.68;70.41;100872.50;5063532;28;20228;-58
2022/08/11 03:29:05;;;;;;;0.10;0.10;;;18.20;99.90;;;18.86;69.66;100884.72;5062834;28;20219;-58
2022/08/11 03:32:26;;;;;;;0.10;0.10;;;18.30;99.90;;;18.78;70.06;100889.31;5093816;28;20229;-59
2022/08/11 03:35:17;;;;;;;0.10;0.10;;;18.30;99.90;;;18.85;69.92;100902.59;5036886;28;20225;-58
2022/08/11 03:38:14;;;;;;;0.10;0.10;;;18.30;99.90;;;18.76;69.90;100900.06;5044636;28;20196;-58
2022/08/11 03:41:44;;;;;;;0.10;0.10;;;18.40;99.90;;;18.80;69.95;100898.22;5072005;28;20205;-57
2022/08/11 03:45:25;;;;;;;0.10;0.10;;;18.30;99.90;;;18.81;69.80;100895.50;5066451;28;20218;-58
2022/08/11 03:48:28;;;;;;;0.10;0.10;;;18.30;99.90;;;18.81;70.21;100908.91;5071136;28;20201;-59
2022/08/11 03:51:25;;;;;;;0.10;0.10;;;18.30;99.90;;;18.78;70.10;100903.59;5071080;28;20212;-58
2022/08/11 03:55:01;;;;;;;0.10;0.10;;;18.30;99.90;;;18.86;69.85;100915.06;5071505;28;20207;-59
2022/08/11 03:58:17;;;;;;;0.10;0.10;;;18.50;99.90;;;18.76;69.99;100902.75;5058928;28;20571;-58
2022/08/11 04:01:28;;;;;;;0.10;0.10;;;18.30;99.90;;;18.78;69.98;100908.06;5051577;28;20212;-58
2022/08/11 04:05:12;;;;;;;0.10;0.10;;;18.30;99.90;;;18.76;70.33;100909.91;5055488;28;20673;-59
2022/08/11 04:08:28;;;;;;;0.10;0.10;;;18.30;99.90;;;18.65;70.52;100904.72;5082839;28;20221;-59
2022/08/11 04:11:58;;;;;;;0.10;0.10;;;18.10;99.90;;;18.60;71.07;100911.91;5051909;28;20223;-59
2022/08/11 04:19:10;;;;;;;0.10;0.10;;;18.10;99.90;;;18.51;71.34;100909.38;5068701;28;20215;-58
2022/08/11 04:23:06;;;;;;;0.10;0.10;;;18.10;99.90;;;18.43;71.71;100904.16;5068331;28;20201;-57
2022/08/11 04:26:32;;;;;;;0.10;0.10;;;18.00;99.90;;;18.42;72.25;100913.09;5086959;28;20235;-59
2022/08/11 04:29:59;;;;;;;0.10;0.10;;;18.10;99.90;;;18.49;71.69;100919.22;5058544;28;20206;-59
2022/08/11 04:33:35;;;;;;;0.10;0.10;;;18.10;99.90;;;18.44;72.08;100918.41;5057645;28;20220;-59
2022/08/11 04:37:31;;;;;;;0.10;0.10;;;18.10;99.90;;;18.39;72.31;100931.00;5056479;28;20224;-59
2022/08/11 04:40:11;;;;;;;0.10;0.10;;;18.10;99.90;;;18.25;72.74;100923.16;5085381;28;20201;-59
2022/08/11 04:43:49;;;;;;;0.10;0.10;;;18.00;99.90;;;18.27;72.36;100924.03;5066613;28;20582;-59
2022/08/11 05:02:22;;;;;;;0.10;0.10;;;18.10;99.90;;;18.59;72.45;101005.69;5048644;28;20201;-58
2022/08/11 05:05:34;;;;;;;0.10;0.10;;;18.10;99.90;;;18.58;72.48;101004.81;5070008;28;20220;-57
2022/08/11 05:09:20;;;;;;;0.10;0.10;;;18.20;99.90;;;18.72;71.79;101026.06;5070619;28;20201;-59
2022/08/11 05:12:52;;;;;;;0.10;0.10;;;18.20;99.90;;;18.74;71.93;101024.25;5030482;28;20213;-58
2022/08/11 05:36:44;;;;;;;0.20;0.20;;;18.40;99.90;;;18.92;73.67;101076.69;5016822;28;20200;-80
2022/08/11 05:59:14;;;;;;;0.10;0.10;;;19.00;99.90;;;19.63;73.24;101161.44;5002013;28;20192;-78
2022/08/11 06:02:05;;;;;;;0.10;0.10;;;19.10;99.90;;;19.75;72.76;101184.50;5011072;28;20216;-79
2022/08/11 06:04:59;;;;;;;0.10;0.10;;;19.30;99.90;;;19.89;73.18;101186.94;4995257;28;20211;-77
2022/08/11 06:07:54;;;;;;;0.10;0.10;;;19.40;99.90;;;20.04;71.59;101175.94;5012053;28;20630;-77
2022/08/11 06:10:45;;;;;;;0.10;0.10;;;19.50;99.90;;;20.17;71.24;101168.53;5011112;28;20192;-78
2022/08/11 06:13:34;;;;;;;0.10;0.10;;;19.60;99.90;;;20.31;70.71;101170.03;5011424;28;20232;-78
2022/08/11 06:16:26;;;;;;;0.10;0.10;;;19.70;99.90;;;20.36;70.66;101160.09;5007435;28;20200;-77
2022/08/11 06:19:17;;;;;;;0.10;0.10;;;19.90;99.90;;;20.54;70.06;101157.97;4998682;28;20204;-77
2022/08/11 06:22:10;;;;;;;0.10;0.10;;;20.00;99.90;;;20.63;70.15;101153.31;5009089;28;20196;-78
2022/08/11 06:25:04;;;;;;;0.00;0.00;;;20.00;99.90;;;20.76;69.50;101153.94;5007906;28;20594;-78
2022/08/11 06:27:57;;;;;;;0.00;0.00;;;20.20;99.90;;;20.97;69.73;101150.78;4997096;28;20223;-80
2022/08/11 06:30:47;;;;;;;0.08;0.08;;;20.30;99.90;;;20.90;69.23;101124.09;4981478;28;20213;-78
2022/08/11 06:34:12;;;;;;;0.00;0.00;;;20.40;99.90;;;21.06;68.34;101112.94;4994654;28;20651;-78
2022/08/11 06:38:02;;;;;;;0.20;0.20;;;20.50;99.90;;;21.20;68.27;101104.53;5010086;28;20228;-78
2022/08/11 06:44:28;;;;;;;0.00;0.00;;;20.80;99.90;;;21.45;67.45;101091.41;5021219;28;20246;-79
2022/08/11 06:47:19;;;;;;;0.10;0.10;;;20.90;99.90;;;21.56;67.55;101094.69;4993815;28;20231;-79
2022/08/11 06:53:18;;;;;;;0.20;0.20;;;21.10;99.90;;;21.80;67.30;101087.78;5009089;28;20243;-78
2022/08/11 07:03:07;;;;;;;0.10;0.10;;;21.40;99.90;;;22.10;67.22;101069.06;5005567;28;20199;-80
2022/08/11 07:06:17;;;;;;;0.10;0.10;;;21.60;99.90;;;22.28;68.06;101076.63;5003957;28;20219;-77
2022/08/11 07:16:34;;;;;;;0.00;0.00;;;22.00;99.90;;;22.72;66.77;101060.94;5000521;28;20196;-77
2022/08/11 07:28:59;;;;;;;0.10;0.10;;;22.40;99.90;;;23.17;64.83;101004.66;4990365;28;20234;-77
2022/08/11 07:31:52;;;;;;;0.00;0.00;;;22.70;99.90;;;23.31;64.41;100995.13;5009414;28;20211;-77
2022/08/11 07:34:48;;;;;;;0.10;0.10;;;22.80;99.90;;;23.41;64.17;100989.47;5010705;28;20232;-78
2022/08/11 07:37:40;;;;;;;0.00;0.00;;;22.90;99.90;;;23.43;64.06;100968.69;5005304;28;20220;-77
2022/08/11 07:40:29;;;;;;;0.00;0.00;;;23.30;99.90;;;23.88;64.26;100987.78;4996838;28;20208;-78
2022/08/11 07:43:18;;;;;;;0.00;0.00;;;;;;;23.94;64.10;100977.63;5005689;28;20207;-77
2022/08/11 07:52:32;;;;;;;0.00;0.00;;;;;;;23.87;62.84;100883.38;5009627;28;20195;-79
2022/08/11 07:55:26;;;;;;;0.00;0.00;;;23.70;99.90;;;24.23;62.77;100902.66;5001616;28;20207;-79
2022/08/11 08:21:10;;;;;;;0.00;0.00;;;25.80;97.20;;;25.96;60.07;100806.66;5001991;28;20207;-80
2022/08/11 08:23:59;;;;;;;0.00;0.00;;;26.20;98.30;;;26.45;60.45;100845.84;5005757;28;20283;-79
2022/08/11 08:26:58;;;;;;;0.00;0.00;;;26.40;96.90;;;26.33;60.11;100803.06;5013769;28;20239;-78
2022/08/11 08:32:56;;;;;;;0.00;0.00;;;26.80;97.10;;;26.79;60.27;100812.44;5006330;28;20222;-79
2022/08/11 08:35:47;;;;;;;0.00;0.00;;;26.80;97.30;;;26.74;60.52;100799.13;5005884;28;20230;-78
2022/08/11 08:38:53;;;;;;;0.00;0.00;;;27.00;96.90;;;26.55;60.60;100754.91;5009958;28;20204;-80
2022/08/11 08:41:44;;;;;;;0.00;0.00;;;26.80;95.80;;;26.29;61.24;100712.84;5007553;28;20212;-79
2022/08/11 08:44:35;;;;;;;0.00;0.00;;;26.40;96.70;;;26.40;61.31;100725.88;5000627;28;20208;-80
2022/08/11 08:47:30;;;;;;;0.00;0.00;;;26.70;97.40;;;26.79;62.97;100788.03;4995963;28;20239;-80
2022/08/11 08:53:50;;;;;;;0.00;0.00;;;27.10;98.70;;;26.78;61.00;100757.28;5000102;28;20235;-80
2022/08/11 08:56:45;;;;;;;0.00;0.00;;;27.10;97.00;;;26.69;62.28;100749.63;5000655;28;20230;-79
2022/08/11 08:59:40;;;;;;;0.00;0.00;;;27.10;96.70;;;27.35;60.59;100786.88;5011739;28;20576;-81
2022/08/11 09:02:38;;;;;;;0.00;0.00;;;27.00;95.10;;;27.07;59.74;100706.03;5008115;28;20235;-80
2022/08/11 09:05:27;;;;;;;0.00;0.00;;;27.10;96.50;;;27.37;60.82;100745.09;4999175;28;20196;-80
2022/08/11 09:08:20;;;;;;;0.00;0.00;;;27.60;95.90;;;27.58;60.33;100758.44;4976425;28;20584;-79
2022/08/11 09:14:20;;;;;;;0.00;0.00;;;29.00;94.70;;;29.01;57.90;100733.66;5013806;28;20223;-79
2022/08/11 09:17:08;;;;;;;0.00;0.00;;;29.10;93.20;;;28.41;57.67;100635.72;5007196;28;20227;-78
2022/08/11 09:20:14;;;;;;;0.00;0.00;;;28.50;92.40;;;27.74;57.80;100550.09;5006432;28;20212;-78
2022/08/11 09:29:44;;;;;;;0.00;0.00;;;28.70;92.20;;;28.69;57.98;100613.16;4998576;28;20200;-78
2022/08/11 09:32:34;;;;;;;0.00;0.00;;;28.60;90.30;;;28.20;56.10;100510.06;5012664;28;20238;-81
2022/08/11 09:35:31;;;;;;;0.00;0.00;;;28.20;90.70;;;27.93;56.45;100461.03;5003946;28;20227;-78
2022/08/11 09:41:38;;;;;;;0.10;0.10;;;28.20;90.50;;;28.64;55.52;100496.41;5006525;28;20275;-80
2022/08/11 09:44:48;;;;;;;0.00;0.00;;;28.60;88.90;;;28.91;53.78;100490.16;5009585;28;20202;-79
2022/08/11 09:47:39;;;;;;;0.00;0.00;;;29.80;90.20;;;30.19;55.15;100575.00;5008757;28;20234;-79
2022/08/11 09:50:28;;;;;;;0.00;0.00;;;;;;;28.85;53.55;100378.97;5021874;28;20203;-81
2022/08/11 09:53:18;;;;;;;0.00;0.00;;;29.20;87.40;;;28.72;54.95;100389.78;4997236;28;20208;-78
2022/08/11 09:59:33;;;;;;;0.00;0.00;;;;;;;28.72;53.31;100353.53;5011920;28;20206;-78
2022/08/11 10:02:27;;;;;;;0.00;0.00;;;28.40;84.50;;;28.51;53.86;100301.41;4995222;28;20690;-77
2022/08/11 10:08:28;;;;;;;0.00;0.00;;;28.90;84.80;;;29.36;53.77;100362.75;5000528;28;20223;-77
2022/08/11 10:11:20;;;;;;;0.00;0.00;;;28.80;84.50;;;28.89;53.44;100279.78;4983490;28;20223;-78
2022/08/11 10:17:22;;;;;;;0.00;0.00;;;28.30;83.90;;;28.76;53.90;100247.06;5001155;28;20612;-77
2022/08/11 10:20:12;;;;;;;0.00;0.00;;;29.10;84.00;;;29.40;52.45;100290.72;5007691;28;20207;-78
2022/08/11 10:35:56;;;;;;;0.00;0.00;;;29.70;78.60;;;29.75;51.09;100182.78;4995339;28;20241;-80
2022/08/11 10:38:51;;;;;;;0.00;0.00;;;29.60;75.30;;;29.70;49.79;100157.72;5000649;28;20215;-79
2022/08/11 10:45:00;;;;;;;0.00;0.00;;;29.50;74.70;;;29.42;49.96;100093.47;5009713;28;20215;-78
2022/08/11 10:47:48;;;;;;;0.00;0.00;;;29.80;75.70;;;30.29;50.08;100167.84;5010492;28;20234;-78
2022/08/11 11:00:13;;;;;;;0.00;0.00;;;30.00;72.20;;;30.85;48.24;100139.75;5011431;28;20210;-78
2022/08/11 11:03:04;;;;;;;0.00;0.00;;;30.10;70.40;;;29.84;47.96;99988.53;4991989;28;20739;-77
2022/08/11 11:06:32;;;;;;;0.00;0.00;;;29.80;70.00;;;30.02;48.38;99999.94;5011155;28;20750;-80
2022/08/11 11:09:32;;;;;;;0.00;0.00;;;30.10;71.80;;;30.91;47.59;100075.56;5007222;28;20214;-78
2022/08/11 11:19:07;;;;;;;0.00;0.00;;;31.30;67.40;;;31.17;47.23;100014.25;5009964;28;20211;-78
2022/08/11 11:22:36;;;;;;;0.00;0.00;;;31.50;68.50;;;31.25;49.67;100060.09;4997483;28;20218;-78
2022/08/11 11:26:13;;;;;;;0.00;0.00;;;30.70;66.40;;;31.14;47.64;100003.56;5010625;28;20287;-78
2022/08/11 11:29:40;;;;;;;0.00;0.00;;;30.90;65.20;;;30.87;46.24;99941.16;5011322;28;20202;-78
2022/08/11 11:32:34;;;;;;;0.00;0.00;;;31.40;65.90;;;31.71;46.41;100021.59;4998241;28;20592;-80
2022/08/11 11:36:25;;;;;;;0.00;0.00;;;31.30;63.40;;;31.50;45.61;99955.91;5009761;28;20230;-78
2022/08/11 11:39:30;;;;;;;0.00;0.00;;;31.70;64.80;;;31.89;45.49;99979.97;4978910;28;20577;-78
2022/08/11 11:42:20;;;;;;;0.00;0.00;;;31.90;63.40;;;31.76;45.54;99950.97;5006123;28;20208;-77
2022/08/11 11:45:10;;;;;;;0.00;0.00;;;31.70;62.30;;;31.53;45.04;99886.47;4998438;28;20204;-78
2022/08/11 11:48:11;;;;;;;0.00;0.00;;;31.60;62.10;;;31.79;45.00;99908.81;4996137;28;20227;-78
2022/08/11 11:51:00;;;;;;;0.00;0.00;;;31.80;61.90;;;31.82;44.81;99898.47;5000276;28;20217;-75
2022/08/11 11:53:49;;;;;;;0.00;0.00;;;31.60;60.60;;;31.59;44.72;99853.13;4998401;28;20211;-78
2022/08/11 11:56:37;;;;;;;0.00;0.00;;;31.80;62.90;;;32.33;45.78;99946.00;4984935;28;20243;-75
2022/08/11 12:02:35;;;;;;;0.00;0.00;;;32.30;58.10;;;32.14;43.82;99853.72;4990681;28;20590;-75
2022/08/11 12:05:25;;;;;;;0.03;0.03;;;31.90;59.00;;;32.15;44.43;99853.59;5011299;28;20210;-76
2022/08/11 12:08:15;;;;;;;0.00;0.00;;;32.00;59.80;;;32.34;44.65;99861.03;5005700;28;20232;-76
2022/08/11 12:14:18;;;;;;;0.00;0.00;;;32.30;60.10;;;32.67;44.83;99886.38;4994602;28;20701;-78
2022/08/11 12:17:06;;;;;;;0.00;0.00;;;32.40;61.40;;;33.27;45.40;99933.78;5010131;28;20695;-75
2022/08/11 12:19:55;;;;;;;0.00;0.00;;;32.50;58.60;;;32.72;44.84;99857.56;5007837;28;20199;-75
2022/08/11 12:29:19;;;;;;;0.00;0.00;;;32.60;59.70;;;32.80;44.31;99869.72;4996734;28;20203;-78
2022/08/11 12:32:08;;;;;;;0.00;0.00;;;32.80;59.80;;;32.37;45.97;99827.91;5005856;28;20216;-77
2022/08/11 12:34:57;;;;;;;0.00;0.00;;;32.80;58.00;;;33.05;43.69;99861.81;5000296;28;20211;-79
2022/08/11 12:37:53;;;;;;;0.00;0.00;;;32.20;56.30;;;32.30;43.89;99776.63;5000635;28;20246;-77
2022/08/11 12:47:19;;;;;;;0.00;0.00;;;32.50;57.70;;;32.47;43.84;99785.00;5003816;28;20703;-77
2022/08/11 12:53:15;;;;;;;0.00;0.00;;;32.60;56.60;;;32.63;43.01;99792.69;4998983;28;20216;-77
2022/08/11 13:05:33;;;;;;;0.00;0.00;;;34.50;54.00;;;33.37;42.24;99748.28;5014861;28;20206;-76
2022/08/11 13:08:39;;;;;;;0.00;0.00;;;33.60;55.60;;;33.32;43.24;99781.63;5005097;28;20257;-76
2022/08/11 13:14:44;;;;;;;0.00;0.00;;;34.20;56.50;;;34.21;44.19;99855.28;5014802;28;20246;-76
2022/08/11 13:17:33;;;;;;;1.95;1.77;;;34.50;55.00;;;34.44;43.02;99834.69;5002291;28;20232;-77
2022/08/11 13:20:31;;;;;;;0.00;0.00;;;34.50;55.60;;;34.38;43.17;99827.06;4986489;28;20284;-78
2022/08/11 13:23:20;;;;;;;0.10;0.10;;;;;;;34.15;43.89;99812.00;5018960;28;20203;-82
2022/08/11 13:26:09;;;;;;;0.00;0.00;;;;;;;33.69;44.88;99758.88;5008956;28;20191;-77
2022/08/11 13:28:57;;;;;;;0.00;0.00;;;34.90;57.00;;;34.59;42.56;99815.81;5008154;28;20208;-76
2022/08/11 13:31:46;;;;;;;0.00;0.00;;;;;;;34.16;42.80;99778.06;5010708;28;20218;-77
2022/08/11 13:34:40;;;;;;;0.32;0.32;;;33.70;54.50;;;32.93;45.13;99709.56;5011624;28;20226;-76
2022/08/11 13:37:28;;;;;;;0.00;0.00;;;33.70;56.90;;;33.78;44.31;99800.97;5000350;28;20239;-76
2022/08/11 13:40:37;;;;;;;0.00;0.00;;;34.80;56.60;;;34.11;44.06;99811.44;4998311;28;20198;-76
2022/08/11 13:43:43;;;;;;;0.20;0.20;;;35.20;56.80;;;34.37;43.78;99819.84;5006645;28;20208;-76
2022/08/11 13:46:32;;;;;;;0.00;0.00;;;34.40;56.60;;;34.16;43.56;99792.63;5006670;28;20219;-76
2022/08/11 13:49:23;;;;;;;0.00;0.00;;;34.40;54.80;;;34.31;43.68;99806.72;5009681;28;20199;-76
2022/08/11 13:52:15;;;;;;;0.30;0.30;;;34.60;53.90;;;33.86;45.30;99758.13;5009693;28;20211;-76
2022/08/11 13:55:06;;;;;;;0.43;0.43;;;34.20;51.80;;;34.16;41.62;99731.41;5007837;28;20207;-77
2022/08/11 13:57:54;;;;;;;0.00;0.00;;;34.50;52.10;;;34.00;41.50;99705.50;5009304;28;20236;-79
2022/08/11 14:01:06;;;;;;;0.00;0.00;;;34.20;53.80;;;34.38;41.97;99750.19;5008528;28;20206;-78
2022/08/11 14:04:40;;;;;;;0.00;0.00;;;34.70;51.60;;;34.73;42.22;99760.34;5009360;28;20191;-78
2022/08/11 14:07:38;;;;;;;0.00;0.00;;;34.40;50.40;;;34.26;40.73;99664.44;5009357;28;20215;-78
2022/08/11 14:10:30;;;;;;;0.00;0.00;;;34.50;52.00;;;34.47;41.43;99693.50;5004379;28;20607;-78
2022/08/11 14:13:38;;;;;;;0.00;0.00;;;34.20;51.00;;;34.28;41.62;99681.63;4983075;28;20199;-79
2022/08/11 14:16:41;;;;;;;0.00;0.00;;;34.20;51.50;;;34.32;41.76;99676.72;4988552;28;20242;-78
2022/08/11 14:19:38;;;;;;;0.00;0.00;;;34.40;52.80;;;34.55;43.26;99710.91;4999546;28;20215;-80
2022/08/11 14:22:27;;;;;;;0.00;0.00;;;34.70;50.80;;;34.41;40.84;99648.31;5004908;28;20215;-77
2022/08/11 14:25:16;;;;;;;0.00;0.00;;;34.60;50.90;;;34.47;40.99;99661.41;4995629;28;20206;-78
2022/08/11 14:28:05;;;;;;;0.38;0.38;;;;;;;33.95;41.17;99608.22;4995141;28;20242;-79
2022/08/11 14:31:15;;;;;;;0.00;0.00;;;34.60;54.60;;;35.15;43.41;99751.50;5008205;28;20200;-79
2022/08/11 14:34:11;;;;;;;0.00;0.00;;;35.10;51.90;;;34.45;41.16;99646.13;4986419;28;20218;-77
2022/08/11 14:37:05;;;;;;;0.20;0.20;;;34.80;49.80;;;34.42;41.44;99639.06;5005461;28;20235;-79
2022/08/11 14:39:58;;;;;;;0.00;0.00;;;34.80;51.50;;;35.24;41.26;99717.53;5014248;28;20195;-78
2022/08/11 14:49:08;;;;;;;0.00;0.00;;;35.10;49.40;;;34.82;40.55;99644.06;4989605;28;20199;-77
2022/08/11 14:51:58;;;;;;;0.00;0.00;;;35.10;50.90;;;34.88;42.35;99672.78;5012841;28;20207;-78
2022/08/11 14:58:02;;;;;;;0.00;0.00;;;34.50;49.60;;;34.30;40.88;99602.72;5008774;28;20261;-77
2022/08/11 15:00:57;;;;;;;0.43;0.43;;;35.50;52.40;;;35.25;42.21;99709.13;5007050;28;20206;-77
2022/08/11 15:03:45;;;;;;;0.22;0.22;;;35.50;50.90;;;35.09;41.77;99672.41;5004766;28;20218;-78
2022/08/11 15:06:53;;;;;;;0.00;0.00;;;36.00;53.00;;;36.09;42.36;99752.44;5008480;28;20215;-78
2022/08/11 15:09:43;;;;;;;0.00;0.00;;;35.90;49.00;;;35.27;40.99;99643.00;5003856;28;20199;-80
2022/08/11 15:12:52;;;;;;;0.00;0.00;;;35.00;48.90;;;34.76;40.52;99606.22;5007580;28;20195;-79
2022/08/11 15:18:53;;;;;;;0.00;0.00;;;;;;;34.87;40.81;99616.09;5009418;28;20202;-78
2022/08/11 15:24:49;;;;;;;0.00;0.00;;;;;;;34.24;40.06;99531.16;5005120;28;20202;-79
2022/08/11 15:37:26;;;;;;;0.00;0.00;;;34.30;48.70;;;34.15;41.43;99563.16;5005449;28;20230;-78
2022/08/11 15:46:50;;;;;;;0.35;0.35;;;34.20;50.30;;;34.46;41.55;99607.53;5006721;28;20222;-78
2022/08/11 15:49:44;;;;;;;0.00;0.00;;;34.20;48.60;;;34.23;41.08;99573.34;5001293;28;20211;-78
2022/08/11 15:52:58;;;;;;;0.00;0.00;;;34.60;49.90;;;34.69;40.61;99621.59;5001894;28;20203;-79
2022/08/11 15:55:47;;;;;;;0.13;0.13;;;34.90;50.60;;;34.74;41.35;99634.84;5004268;28;20206;-78
2022/08/11 16:05:16;;;;;;;0.17;0.17;;;34.60;49.30;;;34.71;41.48;99625.06;5021922;28;20210;-77
2022/08/11 16:08:26;;;;;;;0.00;0.00;;;34.40;48.70;;;34.23;40.77;99574.19;4995567;28;20231;-78
2022/08/11 16:11:21;;;;;;;0.00;0.00;;;33.90;48.90;;;34.08;40.75;99556.56;5004002;28;20223;-79
2022/08/11 16:17:23;;;;;;;0.00;0.00;;;34.10;49.30;;;34.06;41.33;99560.50;4999384;28;20231;-79
2022/08/11 16:20:13;;;;;;;0.00;0.00;;;34.00;51.10;;;33.93;40.87;99556.25;4995596;28;20203;-78
2022/08/11 16:23:05;;;;;;;0.00;0.00;;;34.70;48.90;;;34.11;41.01;99563.63;5008768;28;20207;-78
2022/08/11 16:25:55;;;;;;;0.10;0.10;;;33.70;48.70;;;33.83;41.94;99554.63;5010682;28;20203;-78
2022/08/11 16:29:06;;;;;;;0.00;0.00;;;33.40;49.50;;;33.90;42.36;99583.13;5005168;28;20710;-77
2022/08/11 16:38:35;;;;;;;0.00;0.00;;;33.70;50.10;;;33.47;41.97;99554.50;5006234;28;20235;-80
2022/08/11 16:47:46;;;;;;;0.00;0.00;;;33.00;51.40;;;32.91;43.44;99568.31;5008011;28;20223;-81
2022/08/11 16:50:55;;;;;;;0.10;0.10;;;;;;;32.76;42.91;99549.59;4997293;28;20204;-80
2022/08/11 16:53:44;;;;;;;0.20;0.20;;;33.10;51.60;;;32.70;42.83;99557.53;4995920;28;20200;-79
2022/08/11 16:56:54;;;;;;;0.00;0.00;;;32.30;52.50;;;32.69;43.25;99586.78;5008630;28;20227;-78
2022/08/11 16:59:43;;;;;;;0.00;0.00;;;33.20;53.20;;;32.75;43.74;99605.38;5020907;28;20207;-78
2022/08/11 17:18:39;;;;;;;0.00;0.00;;;31.80;54.30;;;31.78;44.51;99600.88;5010540;28;20233;-78
2022/08/11 17:23:45;;;;;;;0.05;0.05;;;31.60;55.30;;;31.97;44.86;99641.91;5010505;28;20196;-80
2022/08/11 17:24:50;;;;;;;0.20;0.20;;;32.30;54.20;;;31.45;45.49;99605.66;4995669;28;20219;-78
2022/08/11 17:27:42;;;;;;;0.00;0.00;;;31.80;56.40;;;31.79;45.98;99669.09;5007246;28;20242;-79
2022/08/11 17:36:50;;;;;;;0.00;0.00;;;32.20;56.10;;;31.46;45.69;99637.44;5005911;28;20219;-79
2022/08/11 17:39:39;;;;;;;0.00;0.00;;;31.70;55.00;;;31.49;45.76;99644.50;4994330;28;20207;-80
2022/08/11 17:48:53;;;;;;;0.00;0.00;;;;;;;31.50;48.04;99733.69;4994967;28;20204;-80
2022/08/11 18:01:11;;;;;;;0.00;0.00;;;31.70;59.50;;;31.22;48.71;99775.38;5008502;28;20203;-79
2022/08/11 18:04:02;;;;;;;0.00;0.00;;;32.30;60.10;;;31.05;48.67;99765.84;5005070;28;20216;-79
2022/08/11 18:06:53;;;;;;;0.00;0.00;;;31.60;59.60;;;30.96;48.87;99788.50;5008822;28;20215;-79
